Weather at Al Massira Airport

Public forecast

Using degrees Celsius for public forecast. Weather courtesy of forecast.io.

Current aviation weather report (METAR) for Al Massira Airport

Retrieved 2020/12/03 12:30 UTC (3 minutes ago):

GMAD 031230Z 25004KT 140V300 CAVOK 21/12 Q1015 NOSIG

Aviation forecast (TAF) for Al Massira Airport

Retrieved 2020/12/03 12:18 UTC (15 minutes ago):

TAF TAF GMAD 031100Z 0312/0418 00000KT CAVOK BECMG 0314/0316 27010KT